Time,TemperatureF,DewpointF,PressureIn,WindDirection,WindDirectionDegrees,WindSpeedMPH,WindSpeedGustMPH,Humidity,HourlyPrecipIn,Conditions,Clouds,dailyrainin,SoftwareType,DateUTC
2013-01-05 00:02:00,36.5,27.7,30.02,NE,45,0.0,0.0,70,0.00,,,0.00,WUHU21623XXSP,2013-01-05 08:02:00,
2013-01-05 00:07:00,36.1,27.3,30.01,NE,45,0.0,0.0,70,0.00,,,0.00,WUHU21623XXSP,2013-01-05 08:07:00,
2013-01-05 00:12:00,36.1,27.3,30.01,NE,45,0.0,0.0,70,0.00,,,0.00,WUHU21623XXSP,2013-01-05 08:12:00,
2013-01-05 00:17:00,35.9,27.5,30.01,ENE,67,2.9,3.4,71,0.00,,,0.00,WUHU21623XXSP,2013-01-05 08:17:00,
2013-01-05 00:22:00,36.1,27.7,30.00,ENE,67,5.1,5.4,71,0.00,,,0.00,WUHU21623XXSP,2013-01-05 08:22:00,
2013-01-05 00:27:00,36.1,27.7,30.00,ENE,67,2.7,5.4,71,0.00,,,0.00,WUHU21623XXSP,2013-01-05 08:27:00,
2013-01-05 00:32:00,36.1,28.0,30.00,ENE,67,4.7,5.4,72,0.00,,,0.00,WUHU21623XXSP,2013-01-05 08:32:00,
2013-01-05 00:37:00,36.1,28.0,30.00,ENE,67,0.0,4.7,72,0.00,,,0.00,WUHU21623XXSP,2013-01-05 08:37:00,
2013-01-05 00:42:00,36.1,28.0,30.00,ENE,67,0.0,3.4,72,0.00,,,0.00,WUHU21623XXSP,2013-01-05 08:42:00,
2013-01-05 00:47:00,36.1,28.0,30.00,ENE,67,0.0,0.0,72,0.00,,,0.00,WUHU21623XXSP,2013-01-05 08:47:00,
2013-01-05 00:52:00,36.1,28.0,30.00,NNE,22,0.0,1.3,72,0.00,,,0.00,WUHU21623XXSP,2013-01-05 08:52:00,
2013-01-05 00:57:00,36.3,27.9,30.00,NNE,22,0.0,1.3,71,0.00,,,0.00,WUHU21623XXSP,2013-01-05 08:57:00,
2013-01-05 01:02:00,36.5,28.1,30.00,NNE,22,2.7,3.4,71,0.00,,,0.00,WUHU21623XXSP,2013-01-05 09:02:00,
2013-01-05 01:07:00,36.5,28.1,30.00,NNE,22,1.1,3.4,71,0.00,,,0.00,WUHU21623XXSP,2013-01-05 09:07:00,
2013-01-05 01:12:00,36.3,27.9,30.00,NNE,22,0.0,2.9,71,0.00,,,0.00,WUHU21623XXSP,2013-01-05 09:12:00,
2013-01-05 01:17:00,36.1,27.7,30.00,NNE,22,3.4,3.6,71,0.00,,,0.00,WUHU21623XXSP,2013-01-05 09:17:00,
2013-01-05 01:22:00,35.9,27.5,30.00,NNE,22,3.4,3.6,71,0.00,,,0.00,WUHU21623XXSP,2013-01-05 09:22:00,
2013-01-05 01:27:00,35.8,27.4,30.00,NNE,22,1.1,3.6,71,0.00,,,0.00,WUHU21623XXSP,2013-01-05 09:27:00,
2013-01-05 01:32:00,35.6,27.5,30.00,NNE,22,0.0,3.4,72,0.00,,,0.00,WUHU21623XXSP,2013-01-05 09:32:00,
2013-01-05 01:37:00,35.4,27.3,30.00,NNE,22,0.0,1.8,72,0.00,,,0.00,WUHU21623XXSP,2013-01-05 09:37:00,
2013-01-05 01:42:00,35.2,27.1,30.00,NNE,22,0.0,0.0,72,0.00,,,0.00,WUHU21623XXSP,2013-01-05 09:42:00,
2013-01-05 01:47:00,35.0,26.9,30.01,NNE,22,0.0,0.0,72,0.00,,,0.00,WUHU21623XXSP,2013-01-05 09:47:00,
2013-01-05 01:52:00,34.7,26.7,30.01,NNE,22,0.0,0.0,72,0.00,,,0.00,WUHU21623XXSP,2013-01-05 09:52:00,
2013-01-05 01:57:00,34.5,26.5,30.01,NNE,22,0.0,0.0,72,0.00,,,0.00,WUHU21623XXSP,2013-01-05 09:57:00,
2013-01-05 02:02:00,34.3,26.3,30.00,NNE,22,0.0,0.0,72,0.00,,,0.00,WUHU21623XXSP,2013-01-05 10:02:00,
2013-01-05 02:07:00,34.3,26.3,30.00,NNE,22,0.0,0.0,72,0.00,,,0.00,WUHU21623XXSP,2013-01-05 10:07:00,
2013-01-05 02:12:00,34.1,26.1,30.00,NNE,22,0.0,0.0,72,0.00,,,0.00,WUHU21623XXSP,2013-01-05 10:12:00,
2013-01-05 02:17:00,34.0,26.0,30.00,NNE,22,0.0,0.0,72,0.00,,,0.00,WUHU21623XXSP,2013-01-05 10:17:00,
2013-01-05 02:22:00,34.0,26.0,30.00,NNE,22,0.0,0.0,72,0.00,,,0.00,WUHU21623XXSP,2013-01-05 10:22:00,
2013-01-05 02:27:00,34.0,26.0,30.01,NNE,22,0.0,0.0,72,0.00,,,0.00,WUHU21623XXSP,2013-01-05 10:27:00,
2013-01-05 02:32:00,33.8,25.8,30.00,NNE,22,0.0,0.0,72,0.00,,,0.00,WUHU21623XXSP,2013-01-05 10:32:00,
2013-01-05 02:37:00,33.8,25.8,30.00,NNE,22,0.0,0.0,72,0.00,,,0.00,WUHU21623XXSP,2013-01-05 10:37:00,
2013-01-05 02:42:00,33.6,25.6,30.01,NNE,22,0.0,0.0,72,0.00,,,0.00,WUHU21623XXSP,2013-01-05 10:42:00,
2013-01-05 02:47:00,33.4,25.4,30.01,NNE,22,2.0,4.3,72,0.00,,,0.00,WUHU21623XXSP,2013-01-05 10:47:00,
2013-01-05 02:52:00,33.4,25.4,30.00,NNE,22,3.8,4.3,72,0.00,,,0.00,WUHU21623XXSP,2013-01-05 10:52:00,
2013-01-05 02:57:00,33.2,25.2,30.00,NNE,22,0.0,3.8,72,0.00,,,0.00,WUHU21623XXSP,2013-01-05 10:57:00,
2013-01-05 03:02:00,33.2,25.2,30.00,NNE,22,0.0,3.8,72,0.00,,,0.00,WUHU21623XXSP,2013-01-05 11:02:00,
2013-01-05 03:07:00,33.2,25.2,30.00,NNE,22,0.0,0.0,72,0.00,,,0.00,WUHU21623XXSP,2013-01-05 11:07:00,
2013-01-05 03:12:00,33.2,25.2,30.00,NNE,22,0.0,0.0,72,0.00,,,0.00,WUHU21623XXSP,2013-01-05 11:12:00,
2013-01-05 03:17:00,33.2,25.2,30.00,NNE,22,0.0,0.0,72,0.00,,,0.00,WUHU21623XXSP,2013-01-05 11:17:00,
2013-01-05 03:22:00,33.2,25.2,30.00,NNE,22,0.0,0.0,72,0.00,,,0.00,WUHU21623XXSP,2013-01-05 11:22:00,
2013-01-05 03:27:00,33.2,25.2,30.01,NNE,22,0.0,0.0,72,0.00,,,0.00,WUHU21623XXSP,2013-01-05 11:27:00,
2013-01-05 03:32:00,32.9,25.2,30.01,NNE,22,0.0,0.0,73,0.00,,,0.00,WUHU21623XXSP,2013-01-05 11:32:00,
2013-01-05 03:37:00,32.9,25.2,30.01,NNE,22,0.0,0.0,73,0.00,,,0.00,WUHU21623XXSP,2013-01-05 11:37:00,
2013-01-05 03:42:00,32.7,24.7,30.01,NNE,22,0.0,0.0,72,0.00,,,0.00,WUHU21623XXSP,2013-01-05 11:42:00,
2013-01-05 03:47:00,32.5,24.5,30.01,NNE,22,0.0,0.0,72,0.00,,,0.00,WUHU21623XXSP,2013-01-05 11:47:00,
2013-01-05 03:52:00,32.3,24.3,30.01,NNE,22,0.0,0.0,72,0.00,,,0.00,WUHU21623XXSP,2013-01-05 11:52:00,
2013-01-05 03:57:00,32.3,24.3,30.01,NNE,22,0.0,0.0,72,0.00,,,0.00,WUHU21623XXSP,2013-01-05 11:57:00,
2013-01-05 04:02:00,32.3,24.3,30.02,NNE,22,0.0,0.0,72,0.00,,,0.00,WUHU21623XXSP,2013-01-05 12:02:00,
2013-01-05 04:07:00,32.3,24.3,30.01,NNE,22,0.0,0.0,72,0.00,,,0.00,WUHU21623XXSP,2013-01-05 12:07:00,
2013-01-05 04:12:00,32.3,24.3,30.01,NNE,22,0.0,0.0,72,0.00,,,0.00,WUHU21623XXSP,2013-01-05 12:12:00,
2013-01-05 04:17:00,32.3,24.7,30.01,NNE,22,0.0,0.0,73,0.00,,,0.00,WUHU21623XXSP,2013-01-05 12:17:00,
2013-01-05 04:22:00,32.3,24.7,30.01,NE,45,2.9,4.3,73,0.00,,,0.00,WUHU21623XXSP,2013-01-05 12:22:00,
2013-01-05 04:27:00,32.3,24.7,30.01,ENE,67,3.4,4.3,73,0.00,,,0.00,WUHU21623XXSP,2013-01-05 12:27:00,
2013-01-05 04:32:00,32.3,24.7,30.01,ENE,67,3.4,4.0,73,0.00,,,0.00,WUHU21623XXSP,2013-01-05 12:32:00,
2013-01-05 04:37:00,32.3,24.7,30.01,ENE,67,1.6,3.6,73,0.00,,,0.00,WUHU21623XXSP,2013-01-05 12:37:00,
2013-01-05 04:42:00,32.3,24.7,30.01,NNE,22,0.0,3.6,73,0.00,,,0.00,WUHU21623XXSP,2013-01-05 12:42:00,
2013-01-05 04:47:00,32.5,24.9,30.01,NNE,22,0.0,1.8,73,0.00,,,0.00,WUHU21623XXSP,2013-01-05 12:47:00,
2013-01-05 04:52:00,32.5,24.9,30.01,NNE,22,0.0,0.0,73,0.00,,,0.00,WUHU21623XXSP,2013-01-05 12:52:00,
2013-01-05 04:57:00,32.5,24.9,30.01,NNE,22,0.0,0.0,73,0.00,,,0.00,WUHU21623XXSP,2013-01-05 12:57:00,
2013-01-05 05:02:00,32.3,24.7,30.01,NNE,22,0.0,0.0,73,0.00,,,0.00,WUHU21623XXSP,2013-01-05 13:02:00,
2013-01-05 05:07:00,32.3,24.7,30.01,NNE,22,0.0,0.0,73,0.00,,,0.00,WUHU21623XXSP,2013-01-05 13:07:00,
2013-01-05 05:12:00,32.3,24.7,30.01,NNE,22,0.0,0.0,73,0.00,,,0.00,WUHU21623XXSP,2013-01-05 13:12:00,
2013-01-05 05:17:00,32.3,24.7,30.01,NNE,22,0.0,0.0,73,0.00,,,0.00,WUHU21623XXSP,2013-01-05 13:17:00,
2013-01-05 05:22:00,32.3,24.7,30.01,NNE,22,0.0,0.0,73,0.00,,,0.00,WUHU21623XXSP,2013-01-05 13:22:00,
2013-01-05 05:27:00,32.2,24.6,30.01,North,0,0.0,0.0,73,0.00,,,0.00,WUHU21623XXSP,2013-01-05 13:27:00,
2013-01-05 05:32:00,32.0,24.4,30.01,NNE,22,0.0,0.0,73,0.00,,,0.00,WUHU21623XXSP,2013-01-05 13:32:00,
2013-01-05 05:37:00,31.6,24.0,30.01,NNE,22,0.0,0.0,73,0.00,,,0.00,WUHU21623XXSP,2013-01-05 13:37:00,
2013-01-05 05:42:00,31.6,24.0,30.01,NNE,22,0.0,0.0,73,0.00,,,0.00,WUHU21623XXSP,2013-01-05 13:42:00,
2013-01-05 05:47:00,31.6,24.0,30.02,NNE,22,0.0,0.0,73,0.00,,,0.00,WUHU21623XXSP,2013-01-05 13:47:00,
2013-01-05 05:52:00,31.6,24.0,30.02,NNE,22,0.0,0.0,73,0.00,,,0.00,WUHU21623XXSP,2013-01-05 13:52:00,
2013-01-05 05:57:00,31.4,23.8,30.02,NNE,22,0.0,0.0,73,0.00,,,0.00,WUHU21623XXSP,2013-01-05 13:57:00,
2013-01-05 06:02:00,31.4,23.8,30.02,NNE,22,0.0,0.0,73,0.00,,,0.00,WUHU21623XXSP,2013-01-05 14:02:00,
2013-01-05 06:07:00,31.3,23.7,30.02,NNE,22,0.0,0.0,73,0.00,,,0.00,WUHU21623XXSP,2013-01-05 14:07:00,
2013-01-05 06:12:00,31.1,23.5,30.02,NNE,22,0.0,0.0,73,0.00,,,0.00,WUHU21623XXSP,2013-01-05 14:12:00,
2013-01-05 06:17:00,30.9,23.6,30.02,NNE,22,0.0,0.0,74,0.00,,,0.00,WUHU21623XXSP,2013-01-05 14:17:00,
2013-01-05 06:22:00,30.7,23.4,30.02,East,90,0.0,0.0,74,0.00,,,0.00,WUHU21623XXSP,2013-01-05 14:22:00,
2013-01-05 06:27:00,30.7,23.4,30.03,East,90,0.0,0.0,74,0.00,,,0.00,WUHU21623XXSP,2013-01-05 14:27:00,
2013-01-05 06:32:00,30.7,23.4,30.03,East,90,0.0,0.0,74,0.00,,,0.00,WUHU21623XXSP,2013-01-05 14:32:00,
2013-01-05 06:37:00,30.7,23.4,30.03,East,90,0.0,0.0,74,0.00,,,0.00,WUHU21623XXSP,2013-01-05 14:37:00,
2013-01-05 06:42:00,30.7,23.4,30.03,East,90,0.0,0.0,74,0.00,,,0.00,WUHU21623XXSP,2013-01-05 14:42:00,
2013-01-05 06:47:00,30.7,23.4,30.03,ENE,67,0.0,0.0,74,0.00,,,0.00,WUHU21623XXSP,2013-01-05 14:47:00,
2013-01-05 06:52:00,30.7,23.4,30.03,ENE,67,0.0,0.0,74,0.00,,,0.00,WUHU21623XXSP,2013-01-05 14:52:00,
2013-01-05 06:57:00,30.7,23.4,30.03,ENE,67,0.0,0.0,74,0.00,,,0.00,WUHU21623XXSP,2013-01-05 14:57:00,
2013-01-05 07:02:00,30.7,23.4,30.03,ENE,67,0.0,0.0,74,0.00,,,0.00,WUHU21623XXSP,2013-01-05 15:02:00,
2013-01-05 07:07:00,30.7,23.4,30.03,ENE,67,0.0,0.0,74,0.00,,,0.00,WUHU21623XXSP,2013-01-05 15:07:00,
2013-01-05 07:12:00,30.9,23.6,30.03,ENE,67,0.0,0.0,74,0.00,,,0.00,WUHU21623XXSP,2013-01-05 15:12:00,
2013-01-05 07:17:00,30.9,23.3,30.03,ENE,67,0.0,0.0,73,0.00,,,0.00,WUHU21623XXSP,2013-01-05 15:17:00,
2013-01-05 07:22:00,31.1,23.5,30.03,ENE,67,0.0,0.0,73,0.00,,,0.00,WUHU21623XXSP,2013-01-05 15:22:00,
2013-01-05 07:27:00,31.1,23.5,30.03,ENE,67,0.0,0.0,73,0.00,,,0.00,WUHU21623XXSP,2013-01-05 15:27:00,
2013-01-05 07:32:00,30.9,23.3,30.03,ENE,67,0.0,0.0,73,0.00,,,0.00,WUHU21623XXSP,2013-01-05 15:32:00,
2013-01-05 07:37:00,31.1,23.8,30.03,ENE,67,0.0,0.0,74,0.00,,,0.00,WUHU21623XXSP,2013-01-05 15:37:00,
2013-01-05 07:42:00,31.1,23.8,30.03,ENE,67,0.0,0.0,74,0.00,,,0.00,WUHU21623XXSP,2013-01-05 15:42:00,
2013-01-05 07:47:00,31.1,23.8,30.04,ENE,67,0.0,0.0,74,0.00,,,0.00,WUHU21623XXSP,2013-01-05 15:47:00,
2013-01-05 07:52:00,31.1,23.8,30.04,ENE,67,0.0,0.0,74,0.00,,,0.00,WUHU21623XXSP,2013-01-05 15:52:00,
2013-01-05 07:57:00,31.1,23.8,30.04,ENE,67,0.0,0.0,74,0.00,,,0.00,WUHU21623XXSP,2013-01-05 15:57:00,
2013-01-05 08:02:00,31.3,24.3,30.04,ENE,67,0.0,0.0,75,0.00,,,0.00,WUHU21623XXSP,2013-01-05 16:02:00,
2013-01-05 08:07:00,31.4,24.7,30.04,ENE,67,0.0,0.0,76,0.00,,,0.00,WUHU21623XXSP,2013-01-05 16:07:00,
2013-01-05 08:12:00,31.6,24.9,30.04,ENE,67,0.0,0.0,76,0.00,,,0.00,WUHU21623XXSP,2013-01-05 16:12:00,
2013-01-05 08:17:00,31.8,25.1,30.04,ENE,67,0.0,0.0,76,0.00,,,0.00,WUHU21623XXSP,2013-01-05 16:17:00,
2013-01-05 08:22:00,32.0,25.6,30.04,ENE,67,0.0,0.0,77,0.00,,,0.00,WUHU21623XXSP,2013-01-05 16:22:00,
2013-01-05 08:27:00,32.3,25.9,30.04,ENE,67,0.0,0.0,77,0.00,,,0.00,WUHU21623XXSP,2013-01-05 16:27:00,
2013-01-05 08:32:00,32.3,25.9,30.04,ENE,67,0.0,0.0,77,0.00,,,0.00,WUHU21623XXSP,2013-01-05 16:32:00,
2013-01-05 08:37:00,32.9,26.8,30.04,ENE,67,0.0,0.0,78,0.00,,,0.00,WUHU21623XXSP,2013-01-05 16:37:00,
2013-01-05 08:42:00,33.4,27.3,30.04,ENE,67,0.0,0.0,78,0.00,,,0.00,WUHU21623XXSP,2013-01-05 16:42:00,
2013-01-05 08:47:00,33.8,27.7,30.04,ENE,67,0.0,0.0,78,0.00,,,0.00,WUHU21623XXSP,2013-01-05 16:47:00,
2013-01-05 08:52:00,34.5,28.7,30.04,ENE,67,0.0,0.0,79,0.00,,,0.00,WUHU21623XXSP,2013-01-05 16:52:00,
2013-01-05 08:57:00,35.0,29.5,30.05,ENE,67,0.0,0.0,80,0.00,,,0.00,WUHU21623XXSP,2013-01-05 16:57:00,
2013-01-05 09:02:00,35.6,30.1,30.05,ENE,67,0.0,0.0,80,0.00,,,0.00,WUHU21623XXSP,2013-01-05 17:02:00,
2013-01-05 09:07:00,37.4,32.1,30.05,ENE,67,0.0,0.0,81,0.00,,,0.00,WUHU21623XXSP,2013-01-05 17:07:00,
2013-01-05 09:12:00,38.3,33.0,30.05,ENE,67,0.0,0.0,81,0.00,,,0.00,WUHU21623XXSP,2013-01-05 17:12:00,
2013-01-05 09:17:00,39.0,34.0,30.05,ENE,67,0.0,0.0,82,0.00,,,0.00,WUHU21623XXSP,2013-01-05 17:17:00,
2013-01-05 09:23:00,40.1,35.0,30.04,ENE,67,0.0,0.0,82,0.00,,,0.00,WUHU21623XXSP,2013-01-05 17:23:00,
2013-01-05 09:28:00,41.3,36.2,30.05,ENE,67,0.0,0.0,82,0.00,,,0.00,WUHU21623XXSP,2013-01-05 17:28:00,
2013-01-05 09:33:00,41.9,36.8,30.04,ENE,67,0.0,0.0,82,0.00,,,0.00,WUHU21623XXSP,2013-01-05 17:33:00,
2013-01-05 09:38:00,43.0,37.6,30.07,ENE,67,0.0,0.0,81,0.00,,,0.00,WUHU21623XXSP,2013-01-05 17:38:00,
2013-01-05 09:43:00,44.0,38.3,30.06,ENE,67,0.0,0.0,80,0.00,,,0.00,WUHU21623XXSP,2013-01-05 17:43:00,
2013-01-05 09:48:00,44.6,38.8,30.07,ENE,67,0.0,0.0,80,0.00,,,0.00,WUHU21623XXSP,2013-01-05 17:48:00,
2013-01-05 09:53:00,45.3,38.9,30.07,ENE,67,0.0,0.0,78,0.00,,,0.00,WUHU21623XXSP,2013-01-05 17:53:00,
2013-01-05 09:58:00,45.5,38.8,30.06,ENE,67,0.0,0.0,77,0.00,,,0.00,WUHU21623XXSP,2013-01-05 17:58:00,
2013-01-05 10:03:00,46.0,38.9,30.06,ENE,67,0.0,0.0,76,0.00,,,0.00,WUHU21623XXSP,2013-01-05 18:03:00,
2013-01-05 10:07:00,46.6,39.5,30.06,ENE,67,0.0,0.0,76,0.00,,,0.00,WUHU21623XXSP,2013-01-05 18:07:00,
2013-01-05 10:12:00,46.9,39.5,30.05,ENE,67,0.0,0.0,75,0.00,,,0.00,WUHU21623XXSP,2013-01-05 18:12:00,
2013-01-05 10:17:00,47.3,39.5,30.06,ENE,67,0.0,0.0,74,0.00,,,0.00,WUHU21623XXSP,2013-01-05 18:17:00,
2013-01-05 10:22:00,47.6,39.8,30.06,ENE,67,0.0,0.0,74,0.00,,,0.00,WUHU21623XXSP,2013-01-05 18:22:00,
2013-01-05 10:28:00,48.4,40.6,30.06,ENE,67,0.0,0.0,74,0.00,,,0.00,WUHU21623XXSP,2013-01-05 18:28:00,
2013-01-05 10:33:00,48.9,40.4,30.06,ENE,67,0.0,0.0,72,0.00,,,0.00,WUHU21623XXSP,2013-01-05 18:33:00,
2013-01-05 10:38:00,49.3,40.7,30.06,ENE,67,0.0,0.0,72,0.00,,,0.00,WUHU21623XXSP,2013-01-05 18:38:00,
2013-01-05 10:43:00,49.6,40.7,30.06,ENE,67,0.0,0.0,71,0.00,,,0.00,WUHU21623XXSP,2013-01-05 18:43:00,
2013-01-05 10:48:00,50.2,41.3,30.05,ENE,67,0.0,0.0,71,0.00,,,0.00,WUHU21623XXSP,2013-01-05 18:48:00,
2013-01-05 10:53:00,50.5,41.2,30.05,East,90,0.0,0.0,70,0.00,,,0.00,WUHU21623XXSP,2013-01-05 18:53:00,
2013-01-05 10:57:00,50.9,41.9,30.05,North,0,0.0,0.0,71,0.00,,,0.00,WUHU21623XXSP,2013-01-05 18:57:00,
2013-01-05 11:02:00,51.1,41.8,30.05,ENE,67,0.0,4.5,70,0.00,,,0.00,WUHU21623XXSP,2013-01-05 19:02:00,
2013-01-05 11:07:00,51.2,41.9,30.04,ENE,67,4.9,7.2,70,0.00,,,0.00,WUHU21623XXSP,2013-01-05 19:07:00,
2013-01-05 11:12:00,51.2,41.9,30.03,ESE,112,8.3,8.3,70,0.00,,,0.00,WUHU21623XXSP,2013-01-05 19:12:00,
2013-01-05 11:17:00,50.9,41.6,30.02,East,90,11.0,11.2,70,0.00,,,0.00,WUHU21623XXSP,2013-01-05 19:17:00,
2013-01-05 11:23:00,50.5,41.2,30.01,East,90,11.6,11.9,70,0.00,,,0.00,WUHU21623XXSP,2013-01-05 19:23:00,
2013-01-05 11:28:00,50.2,40.9,30.01,East,87,9.7,13.4,70,0.00,,,0.00,WUHU21623XXSP,2013-01-05 19:28:00,
2013-01-05 11:33:00,49.8,40.9,30.00,East,90,13.2,13.4,71,0.00,,,0.00,WUHU21623XXSP,2013-01-05 19:33:00,
2013-01-05 11:38:00,49.6,40.7,29.99,ENE,67,10.5,16.1,71,0.00,,,0.00,WUHU21623XXSP,2013-01-05 19:38:00,
2013-01-05 11:43:00,49.4,40.5,29.99,East,90,9.6,19.2,71,0.00,,,0.00,WUHU21623XXSP,2013-01-05 19:43:00,
2013-01-05 11:48:00,49.6,41.0,29.98,East,85,11.8,19.2,72,0.00,,,0.00,WUHU21623XXSP,2013-01-05 19:48:00,
2013-01-05 11:53:00,50.9,42.6,29.99,NE,45,10.5,15.9,73,0.00,,,0.00,WUHU21623XXSP,2013-01-05 19:53:00,
2013-01-05 11:58:00,53.0,44.3,30.00,NNE,22,8.1,11.2,72,0.00,,,0.00,WUHU21623XXSP,2013-01-05 19:58:00,
2013-01-05 12:03:00,53.6,43.8,30.00,NE,45,7.6,9.4,69,0.00,,,0.00,WUHU21623XXSP,2013-01-05 20:03:00,
2013-01-05 12:08:00,53.6,43.0,30.01,NE,49,7.7,11.2,67,0.00,,,0.00,WUHU21623XXSP,2013-01-05 20:08:00,
2013-01-05 12:13:00,53.9,42.9,30.01,NE,47,7.5,11.2,66,0.00,,,0.00,WUHU21623XXSP,2013-01-05 20:13:00,
2013-01-05 12:18:00,54.5,43.5,30.01,North,0,6.5,11.6,66,0.00,,,0.00,WUHU21623XXSP,2013-01-05 20:18:00,
2013-01-05 12:23:00,55.0,43.6,30.01,NE,45,11.4,13.0,65,0.00,,,0.00,WUHU21623XXSP,2013-01-05 20:23:00,
2013-01-05 12:28:00,55.9,43.6,30.01,NNE,22,5.6,13.0,63,0.00,,,0.00,WUHU21623XXSP,2013-01-05 20:28:00,
2013-01-05 12:33:00,56.3,44.0,30.00,NE,45,6.9,10.3,63,0.00,,,0.00,WUHU21623XXSP,2013-01-05 20:33:00,
2013-01-05 12:38:00,56.8,43.6,30.00,NNE,22,8.5,10.3,61,0.00,,,0.00,WUHU21623XXSP,2013-01-05 20:38:00,
2013-01-05 12:43:00,57.2,43.6,30.00,NE,45,3.1,9.4,60,0.00,,,0.00,WUHU21623XXSP,2013-01-05 20:43:00,
2013-01-05 12:48:00,57.5,43.4,29.99,NE,45,9.2,11.0,59,0.00,,,0.00,WUHU21623XXSP,2013-01-05 20:48:00,
2013-01-05 12:53:00,58.6,44.9,30.00,ENE,57,6.7,11.0,60,0.00,,,0.00,WUHU21623XXSP,2013-01-05 20:53:00,
2013-01-05 12:58:00,58.6,44.0,29.99,ENE,67,6.7,9.6,58,0.00,,,0.00,WUHU21623XXSP,2013-01-05 20:58:00,
2013-01-05 13:03:00,58.6,44.0,30.00,NE,45,0.0,8.1,58,0.00,,,0.00,WUHU21623XXSP,2013-01-05 21:03:00,
2013-01-05 13:08:00,58.6,43.5,30.00,ENE,67,5.1,7.2,57,0.00,,,0.00,WUHU21623XXSP,2013-01-05 21:08:00,
2013-01-05 13:13:00,58.3,43.2,30.00,ENE,67,5.6,8.1,57,0.00,,,0.00,WUHU21623XXSP,2013-01-05 21:13:00,
2013-01-05 13:18:00,57.9,43.3,29.99,ENE,66,5.0,8.1,58,0.00,,,0.00,WUHU21623XXSP,2013-01-05 21:18:00,
2013-01-05 13:23:00,57.5,42.9,29.99,ENE,65,5.1,8.3,58,0.00,,,0.00,WUHU21623XXSP,2013-01-05 21:23:00,
2013-01-05 13:28:00,57.2,43.1,29.99,NE,45,0.0,8.3,59,0.00,,,0.00,WUHU21623XXSP,2013-01-05 21:28:00,
2013-01-05 13:33:00,56.8,42.3,29.99,NE,45,5.4,7.6,58,0.00,,,0.00,WUHU21623XXSP,2013-01-05 21:33:00,
2013-01-05 13:38:00,56.8,42.7,29.98,NE,45,6.0,7.4,59,0.00,,,0.00,WUHU21623XXSP,2013-01-05 21:38:00,
2013-01-05 13:43:00,56.8,42.7,29.98,NE,52,5.2,8.9,59,0.00,,,0.00,WUHU21623XXSP,2013-01-05 21:43:00,
2013-01-05 13:48:00,56.5,42.4,29.98,NE,45,6.7,8.9,59,0.00,,,0.00,WUHU21623XXSP,2013-01-05 21:48:00,
2013-01-05 13:53:00,56.3,42.7,29.97,ENE,67,6.7,9.6,60,0.00,,,0.00,WUHU21623XXSP,2013-01-05 21:53:00,
2013-01-05 13:58:00,56.1,42.5,29.97,ENE,67,5.1,9.6,60,0.00,,,0.00,WUHU21623XXSP,2013-01-05 21:58:00,
2013-01-05 14:03:00,56.3,42.7,29.97,ENE,67,4.3,8.5,60,0.00,,,0.00,WUHU21623XXSP,2013-01-05 22:03:00,
2013-01-05 14:08:00,56.3,42.7,29.97,NE,45,3.8,6.7,60,0.00,,,0.00,WUHU21623XXSP,2013-01-05 22:08:00,
2013-01-05 14:13:00,56.5,42.9,29.97,NE,45,4.0,6.5,60,0.00,,,0.00,WUHU21623XXSP,2013-01-05 22:13:00,
2013-01-05 14:18:00,56.6,43.0,29.97,NE,45,5.1,6.7,60,0.00,,,0.00,WUHU21623XXSP,2013-01-05 22:18:00,
2013-01-05 14:23:00,56.5,42.9,29.96,ENE,67,6.5,7.8,60,0.00,,,0.00,WUHU21623XXSP,2013-01-05 22:23:00,
2013-01-05 14:28:00,56.5,43.3,29.96,NE,45,4.0,7.8,61,0.00,,,0.00,WUHU21623XXSP,2013-01-05 22:28:00,
2013-01-05 14:33:00,56.3,43.1,29.95,ENE,67,4.9,7.2,61,0.00,,,0.00,WUHU21623XXSP,2013-01-05 22:33:00,
2013-01-05 14:38:00,55.9,42.8,29.95,East,90,8.1,8.1,61,0.00,,,0.00,WUHU21623XXSP,2013-01-05 22:38:00,
2013-01-05 14:43:00,55.6,42.5,29.95,ENE,67,3.8,8.1,61,0.00,,,0.00,WUHU21623XXSP,2013-01-05 22:43:00,
2013-01-05 14:48:00,55.7,42.6,29.95,East,90,5.1,7.8,61,0.00,,,0.00,WUHU21623XXSP,2013-01-05 22:48:00,
2013-01-05 14:53:00,55.7,43.0,29.95,ENE,67,4.0,5.8,62,0.00,,,0.00,WUHU21623XXSP,2013-01-05 22:53:00,
2013-01-05 14:58:00,55.9,43.2,29.95,ENE,67,4.7,5.4,62,0.00,,,0.00,WUHU21623XXSP,2013-01-05 22:58:00,
2013-01-05 15:03:00,56.1,43.4,29.95,ENE,67,5.4,5.4,62,0.00,,,0.00,WUHU21623XXSP,2013-01-05 23:03:00,
2013-01-05 15:08:00,55.9,42.8,29.95,ENE,67,6.5,7.4,61,0.00,,,0.00,WUHU21623XXSP,2013-01-05 23:08:00,
2013-01-05 15:13:00,55.6,42.9,29.95,NE,45,0.0,7.4,62,0.00,,,0.00,WUHU21623XXSP,2013-01-05 23:13:00,
2013-01-05 15:18:00,55.6,42.9,29.95,ENE,67,4.7,8.5,62,0.00,,,0.00,WUHU21623XXSP,2013-01-05 23:18:00,
2013-01-05 15:23:00,55.6,42.9,29.95,NE,45,6.9,8.5,62,0.00,,,0.00,WUHU21623XXSP,2013-01-05 23:23:00,
2013-01-05 15:28:00,55.7,43.0,29.95,NE,45,5.1,8.1,62,0.00,,,0.00,WUHU21623XXSP,2013-01-05 23:28:00,
2013-01-05 15:33:00,55.7,43.0,29.94,NE,45,6.5,9.2,62,0.00,,,0.00,WUHU21623XXSP,2013-01-05 23:33:00,
2013-01-05 15:38:00,55.4,42.7,29.94,NE,45,6.5,9.2,62,0.00,,,0.00,WUHU21623XXSP,2013-01-05 23:38:00,
2013-01-05 15:43:00,55.4,42.7,29.94,NE,45,4.5,8.1,62,0.00,,,0.00,WUHU21623XXSP,2013-01-05 23:43:00,
2013-01-05 15:48:00,55.0,42.8,29.94,NE,47,5.2,7.6,63,0.00,,,0.00,WUHU21623XXSP,2013-01-05 23:48:00,
2013-01-05 15:53:00,54.8,42.1,29.94,NE,45,7.8,7.8,62,0.00,,,0.00,WUHU21623XXSP,2013-01-05 23:53:00,
2013-01-05 15:58:00,54.8,42.1,29.94,ENE,67,2.9,9.8,62,0.00,,,0.00,WUHU21623XXSP,2013-01-05 23:58:00,
2013-01-05 16:03:00,55.0,42.8,29.93,NE,45,8.7,9.8,63,0.00,,,0.00,WUHU21623XXSP,2013-01-06 00:03:00,
2013-01-05 16:08:00,55.0,42.8,29.93,ENE,67,4.7,10.1,63,0.00,,,0.00,WUHU21623XXSP,2013-01-06 00:08:00,
2013-01-05 16:13:00,54.5,41.9,29.93,ENE,67,7.8,10.1,62,0.00,,,0.00,WUHU21623XXSP,2013-01-06 00:13:00,
2013-01-05 16:18:00,54.3,42.1,29.93,NE,45,3.6,9.6,63,0.00,,,0.00,WUHU21623XXSP,2013-01-06 00:18:00,
2013-01-05 16:23:00,54.5,42.7,29.93,NE,45,2.7,11.2,64,0.00,,,0.00,WUHU21623XXSP,2013-01-06 00:23:00,
2013-01-05 16:28:00,53.9,41.7,29.93,ENE,67,5.8,11.2,63,0.00,,,0.00,WUHU21623XXSP,2013-01-06 00:28:00,
2013-01-05 16:33:00,53.0,41.3,29.93,NE,45,7.6,10.1,64,0.00,,,0.00,WUHU21623XXSP,2013-01-06 00:33:00,
2013-01-05 16:38:00,52.1,40.8,29.93,NE,45,7.6,10.7,65,0.00,,,0.00,WUHU21623XXSP,2013-01-06 00:38:00,
2013-01-05 16:43:00,51.8,40.5,29.93,ENE,67,5.8,10.7,65,0.00,,,0.00,WUHU21623XXSP,2013-01-06 00:43:00,
2013-01-05 16:48:00,51.2,40.3,29.92,NE,45,9.4,10.1,66,0.00,,,0.00,WUHU21623XXSP,2013-01-06 00:48:00,
2013-01-05 16:53:00,50.9,40.4,29.92,NE,45,7.8,12.8,67,0.00,,,0.00,WUHU21623XXSP,2013-01-06 00:53:00,
2013-01-05 16:58:00,50.5,40.1,29.91,NE,45,6.0,13.4,67,0.00,,,0.00,WUHU21623XXSP,2013-01-06 00:58:00,
2013-01-05 17:03:00,50.0,40.0,29.92,NE,45,6.9,13.4,68,0.00,,,0.00,WUHU21623XXSP,2013-01-06 01:03:00,
2013-01-05 17:08:00,49.6,40.0,29.91,NE,45,7.4,13.2,69,0.00,,,0.00,WUHU21623XXSP,2013-01-06 01:08:00,
2013-01-05 17:13:00,49.8,40.5,29.92,ENE,67,1.3,13.2,70,0.00,,,0.00,WUHU21623XXSP,2013-01-06 01:13:00,
2013-01-05 17:18:00,49.6,40.3,29.91,ENE,67,9.6,12.1,70,0.00,,,0.00,WUHU21623XXSP,2013-01-06 01:18:00,
2013-01-05 17:23:00,49.1,39.5,29.92,NE,45,4.7,10.3,69,0.00,,,0.00,WUHU21623XXSP,2013-01-06 01:23:00,
2013-01-05 17:28:00,49.1,39.8,29.92,NNE,22,7.2,9.8,70,0.00,,,0.00,WUHU21623XXSP,2013-01-06 01:28:00,
2013-01-05 17:33:00,49.1,39.8,29.92,NNE,22,4.7,8.9,70,0.00,,,0.00,WUHU21623XXSP,2013-01-06 01:33:00,
2013-01-05 17:38:00,49.1,39.8,29.92,NE,45,5.4,8.9,70,0.00,,,0.00,WUHU21623XXSP,2013-01-06 01:38:00,
2013-01-05 17:43:00,48.9,39.6,29.92,NNE,22,6.0,8.5,70,0.00,,,0.00,WUHU21623XXSP,2013-01-06 01:43:00,
2013-01-05 17:48:00,48.9,39.6,29.93,NNE,22,0.0,6.0,70,0.00,,,0.00,WUHU21623XXSP,2013-01-06 01:48:00,
2013-01-05 17:53:00,48.9,39.6,29.93,NE,45,4.5,6.0,70,0.00,,,0.00,WUHU21623XXSP,2013-01-06 01:53:00,
2013-01-05 17:58:00,48.7,39.5,29.93,NNE,22,7.6,8.5,70,0.00,,,0.00,WUHU21623XXSP,2013-01-06 01:58:00,
2013-01-05 18:03:00,48.7,39.5,29.92,NE,45,8.3,9.4,70,0.00,,,0.00,WUHU21623XXSP,2013-01-06 02:03:00,
2013-01-05 18:08:00,48.5,39.3,29.92,NE,45,9.2,9.8,70,0.00,,,0.00,WUHU21623XXSP,2013-01-06 02:08:00,
2013-01-05 18:13:00,48.4,39.2,29.92,NE,45,10.1,10.7,70,0.00,,,0.00,WUHU21623XXSP,2013-01-06 02:13:00,
2013-01-05 18:18:00,47.8,38.6,29.91,East,90,5.4,11.0,70,0.00,,,0.00,WUHU21623XXSP,2013-01-06 02:18:00,
2013-01-05 18:23:00,47.6,38.8,29.92,NE,45,5.4,11.0,71,0.00,,,0.00,WUHU21623XXSP,2013-01-06 02:23:00,
2013-01-05 18:28:00,47.3,38.8,29.91,ENE,67,2.9,10.3,72,0.00,,,0.00,WUHU21623XXSP,2013-01-06 02:28:00,
2013-01-05 18:33:00,47.1,39.0,29.91,NE,45,6.9,9.8,73,0.00,,,0.00,WUHU21623XXSP,2013-01-06 02:33:00,
2013-01-05 18:38:00,47.5,39.4,29.91,NE,45,6.0,9.8,73,0.00,,,0.00,WUHU21623XXSP,2013-01-06 02:38:00,
2013-01-05 18:43:00,47.3,39.2,29.90,NE,45,6.5,10.5,73,0.00,,,0.00,WUHU21623XXSP,2013-01-06 02:43:00,
2013-01-05 18:48:00,47.1,39.0,29.90,NNE,22,10.3,10.7,73,0.00,,,0.00,WUHU21623XXSP,2013-01-06 02:48:00,
2013-01-05 18:53:00,47.1,39.0,29.90,NNE,22,10.7,12.5,73,0.00,,,0.00,WUHU21623XXSP,2013-01-06 02:53:00,
2013-01-05 18:58:00,47.1,39.0,29.90,NNE,22,13.4,13.4,73,0.00,,,0.00,WUHU21623XXSP,2013-01-06 02:58:00,
2013-01-05 19:03:00,46.9,38.8,29.90,NNE,22,12.3,13.6,73,0.00,,,0.00,WUHU21623XXSP,2013-01-06 03:03:00,
2013-01-05 19:08:00,46.9,38.8,29.89,NNE,22,15.0,16.3,73,0.00,,,0.00,WUHU21623XXSP,2013-01-06 03:08:00,
2013-01-05 19:13:00,46.7,38.6,29.90,NNE,22,10.3,16.3,73,0.00,,,0.00,WUHU21623XXSP,2013-01-06 03:13:00,
2013-01-05 19:18:00,46.7,38.6,29.89,NNE,22,13.6,13.6,73,0.00,,,0.00,WUHU21623XXSP,2013-01-06 03:18:00,
2013-01-05 19:23:00,46.7,38.6,29.89,NNE,22,8.3,13.6,73,0.00,,,0.00,WUHU21623XXSP,2013-01-06 03:23:00,
2013-01-05 19:28:00,46.4,38.3,29.89,NNE,22,11.9,13.2,73,0.00,,,0.00,WUHU21623XXSP,2013-01-06 03:28:00,
2013-01-05 19:33:00,46.2,38.4,29.89,NE,45,8.7,11.9,74,0.00,,,0.00,WUHU21623XXSP,2013-01-06 03:33:00,
2013-01-05 19:38:00,46.0,38.2,29.89,NNE,22,9.6,13.0,74,0.00,,,0.00,WUHU21623XXSP,2013-01-06 03:38:00,
2013-01-05 19:43:00,46.0,38.2,29.90,NE,45,9.2,13.6,74,0.00,,,0.00,WUHU21623XXSP,2013-01-06 03:43:00,
2013-01-05 19:48:00,45.8,38.4,29.90,NE,45,3.4,13.6,75,0.00,,,0.00,WUHU21623XXSP,2013-01-06 03:48:00,
2013-01-05 19:53:00,45.5,38.1,29.90,NE,45,6.7,9.8,75,0.00,,,0.00,WUHU21623XXSP,2013-01-06 03:53:00,
2013-01-05 19:58:00,45.5,38.4,29.90,NE,45,10.1,11.6,76,0.00,,,0.00,WUHU21623XXSP,2013-01-06 03:58:00,
2013-01-05 20:03:00,45.3,38.2,29.90,NE,45,13.4,15.9,76,0.00,,,0.00,WUHU21623XXSP,2013-01-06 04:03:00,
2013-01-05 20:08:00,45.3,38.2,29.89,NNE,22,6.9,17.7,76,0.00,,,0.00,WUHU21623XXSP,2013-01-06 04:08:00,
2013-01-05 20:12:00,45.1,38.0,29.90,NE,45,12.1,17.7,76,0.00,,,0.00,WUHU21623XXSP,2013-01-06 04:12:00,
2013-01-05 20:18:00,45.1,38.0,29.90,NE,45,10.1,17.0,76,0.00,,,0.00,WUHU21623XXSP,2013-01-06 04:18:00,
2013-01-05 20:23:00,44.9,37.8,29.89,NE,45,6.9,10.1,76,0.00,,,0.00,WUHU21623XXSP,2013-01-06 04:23:00,
2013-01-05 20:28:00,44.9,38.2,29.89,NE,45,12.3,12.5,77,0.00,,,0.00,WUHU21623XXSP,2013-01-06 04:28:00,
2013-01-05 20:33:00,45.1,38.4,29.89,NE,45,11.6,15.0,77,0.00,,,0.00,WUHU21623XXSP,2013-01-06 04:33:00,
2013-01-05 20:38:00,45.1,38.4,29.89,NNE,22,12.8,15.0,77,0.00,,,0.00,WUHU21623XXSP,2013-01-06 04:38:00,
2013-01-05 20:43:00,45.1,38.4,29.89,North,0,7.8,13.6,77,0.00,,,0.00,WUHU21623XXSP,2013-01-06 04:43:00,
2013-01-05 20:48:00,44.9,38.2,29.90,North,0,4.3,10.7,77,0.00,,,0.00,WUHU21623XXSP,2013-01-06 04:48:00,
2013-01-05 20:53:00,44.8,38.1,29.90,North,0,4.9,10.5,77,0.00,,,0.00,WUHU21623XXSP,2013-01-06 04:53:00,
2013-01-05 20:58:00,44.8,38.1,29.90,NE,45,3.6,10.5,77,0.00,,,0.00,WUHU21623XXSP,2013-01-06 04:58:00,
2013-01-05 21:01:00,44.6,37.9,29.90,NE,45,8.5,8.5,77,0.00,,,0.00,WUHU21623XXSP,2013-01-06 05:01:00,
2013-01-05 21:03:00,44.6,38.2,29.90,ENE,67,5.6,8.9,78,0.00,,,0.00,WUHU21623XXSP,2013-01-06 05:03:00,
2013-01-05 21:07:00,44.6,38.2,29.90,ENE,67,3.1,8.9,78,0.00,,,0.00,WUHU21623XXSP,2013-01-06 05:07:00,
2013-01-05 21:12:00,44.4,38.0,29.89,NE,45,6.9,9.4,78,0.00,,,0.00,WUHU21623XXSP,2013-01-06 05:12:00,
2013-01-05 21:17:00,44.6,38.2,29.88,NE,45,11.4,13.2,78,0.00,,,0.00,WUHU21623XXSP,2013-01-06 05:17:00,
2013-01-05 21:22:00,44.6,38.2,29.88,NNE,29,11.1,16.1,78,0.00,,,0.00,WUHU21623XXSP,2013-01-06 05:22:00,
2013-01-05 21:27:00,44.6,38.2,29.88,NNE,22,9.2,16.1,78,0.00,,,0.00,WUHU21623XXSP,2013-01-06 05:27:00,
2013-01-05 21:32:00,44.6,38.2,29.88,NNE,22,9.6,12.5,78,0.00,,,0.00,WUHU21623XXSP,2013-01-06 05:32:00,
2013-01-05 21:37:00,44.4,37.7,29.89,NNE,22,11.2,11.6,77,0.00,,,0.00,WUHU21623XXSP,2013-01-06 05:37:00,
2013-01-05 21:42:00,44.2,37.5,29.89,NNE,22,13.2,13.4,77,0.00,,,0.00,WUHU21623XXSP,2013-01-06 05:42:00,
2013-01-05 21:47:00,44.2,37.5,29.89,NNE,22,15.4,15.4,77,0.00,,,0.00,WUHU21623XXSP,2013-01-06 05:47:00,
2013-01-05 21:52:00,44.2,37.5,29.89,NNE,22,9.8,15.4,77,0.00,,,0.00,WUHU21623XXSP,2013-01-06 05:52:00,
2013-01-05 21:57:00,44.2,37.5,29.88,NNE,22,11.9,13.0,77,0.00,,,0.00,WUHU21623XXSP,2013-01-06 05:57:00,
2013-01-05 22:02:00,44.2,37.5,29.89,NNE,22,11.6,13.0,77,0.00,,,0.00,WUHU21623XXSP,2013-01-06 06:02:00,
2013-01-05 22:07:00,44.2,37.5,29.89,North,0,10.7,13.4,77,0.00,,,0.00,WUHU21623XXSP,2013-01-06 06:07:00,
2013-01-05 22:12:00,44.0,37.6,29.89,NNE,22,8.7,13.4,78,0.00,,,0.00,WUHU21623XXSP,2013-01-06 06:12:00,
2013-01-05 22:17:00,44.2,37.8,29.89,NNE,22,10.7,13.2,78,0.00,,,0.00,WUHU21623XXSP,2013-01-06 06:17:00,
2013-01-05 22:22:00,44.2,37.8,29.89,NNE,22,12.8,12.8,78,0.00,,,0.00,WUHU21623XXSP,2013-01-06 06:22:00,
2013-01-05 22:27:00,44.2,37.5,29.88,NNE,22,10.1,13.6,77,0.00,,,0.00,WUHU21623XXSP,2013-01-06 06:27:00,
2013-01-05 22:32:00,44.2,37.5,29.89,NNE,22,15.4,15.7,77,0.00,,,0.00,WUHU21623XXSP,2013-01-06 06:32:00,
2013-01-05 22:37:00,44.0,37.6,29.89,NNE,22,13.6,15.7,78,0.00,,,0.00,WUHU21623XXSP,2013-01-06 06:37:00,
2013-01-05 22:42:00,44.2,37.8,29.89,NE,45,11.0,15.0,78,0.00,,,0.00,WUHU21623XXSP,2013-01-06 06:42:00,
2013-01-05 22:47:00,44.2,37.8,29.90,NNE,26,11.4,15.2,78,0.00,,,0.00,WUHU21623XXSP,2013-01-06 06:47:00,
2013-01-05 22:52:00,44.2,37.8,29.90,NE,34,11.9,15.2,78,0.00,,,0.00,WUHU21623XXSP,2013-01-06 06:52:00,
2013-01-05 22:57:00,44.0,37.6,29.89,NE,45,15.0,16.8,78,0.00,,,0.00,WUHU21623XXSP,2013-01-06 06:57:00,
2013-01-05 23:02:00,44.0,37.6,29.89,NNE,22,8.9,16.8,78,0.00,,,0.00,WUHU21623XXSP,2013-01-06 07:02:00,
2013-01-05 23:07:00,44.0,37.6,29.89,NE,45,15.0,17.4,78,0.00,,,0.00,WUHU21623XXSP,2013-01-06 07:07:00,
2013-01-05 23:12:00,44.0,37.6,29.89,NE,45,12.1,17.4,78,0.00,,,0.00,WUHU21623XXSP,2013-01-06 07:12:00,
2013-01-05 23:17:00,44.0,37.6,29.88,NNE,22,17.0,17.0,78,0.00,,,0.00,WUHU21623XXSP,2013-01-06 07:17:00,
2013-01-05 23:22:00,44.0,37.6,29.89,NE,45,6.7,17.2,78,0.00,,,0.00,WUHU21623XXSP,2013-01-06 07:22:00,
2013-01-05 23:27:00,43.7,37.3,29.88,NNE,22,12.1,17.2,78,0.00,,,0.00,WUHU21623XXSP,2013-01-06 07:27:00,
2013-01-05 23:32:00,44.0,37.9,29.88,NE,45,15.7,17.2,79,0.00,,,0.00,WUHU21623XXSP,2013-01-06 07:32:00,
2013-01-05 23:37:00,44.2,38.1,29.88,NNE,28,14.2,19.5,79,0.00,,,0.00,WUHU21623XXSP,2013-01-06 07:37:00,
2013-01-05 23:42:00,44.6,38.5,29.89,NNE,22,11.6,19.5,79,0.00,,,0.00,WUHU21623XXSP,2013-01-06 07:42:00,
2013-01-05 23:47:00,44.4,38.0,29.88,NNE,22,17.0,17.0,78,0.00,,,0.00,WUHU21623XXSP,2013-01-06 07:47:00,
2013-01-05 23:52:00,44.6,38.5,29.88,NNE,22,13.6,17.0,79,0.00,,,0.00,WUHU21623XXSP,2013-01-06 07:52:00,
2013-01-05 23:57:00,44.6,38.2,29.88,NNE,22,13.0,17.0,78,0.00,,,0.00,WUHU21623XXSP,2013-01-06 07:57:00,